sensor_id;sensor_type;location;lat;lon;timestamp;P1;durP1;ratioP1;P2;durP2;ratioP2
7665;SDS011;3875;46.562;4.898;2022-08-06T00:00:42;4.10;;;2.83;;
7665;SDS011;3875;46.562;4.898;2022-08-06T00:03:08;3.23;;;2.87;;
7665;SDS011;3875;46.562;4.898;2022-08-06T00:05:33;5.00;;;3.17;;
7665;SDS011;3875;46.562;4.898;2022-08-06T00:07:59;3.23;;;2.97;;
7665;SDS011;3875;46.562;4.898;2022-08-06T00:10:25;4.40;;;3.10;;
7665;SDS011;3875;46.562;4.898;2022-08-06T00:12:51;4.60;;;3.07;;
7665;SDS011;3875;46.562;4.898;2022-08-06T00:15:17;4.77;;;2.87;;
7665;SDS011;3875;46.562;4.898;2022-08-06T00:17:43;3.20;;;2.90;;
7665;SDS011;3875;46.562;4.898;2022-08-06T00:20:10;3.57;;;3.27;;
7665;SDS011;3875;46.562;4.898;2022-08-06T00:22:40;4.23;;;2.77;;
7665;SDS011;3875;46.562;4.898;2022-08-06T00:25:07;5.87;;;3.07;;
7665;SDS011;3875;46.562;4.898;2022-08-06T00:27:35;3.83;;;2.93;;
7665;SDS011;3875;46.562;4.898;2022-08-06T00:30:01;5.27;;;2.90;;
7665;SDS011;3875;46.562;4.898;2022-08-06T00:32:28;3.40;;;2.70;;
7665;SDS011;3875;46.562;4.898;2022-08-06T00:34:54;4.60;;;3.00;;
7665;SDS011;3875;46.562;4.898;2022-08-06T00:37:20;3.13;;;2.87;;
7665;SDS011;3875;46.562;4.898;2022-08-06T00:39:46;3.23;;;2.90;;
7665;SDS011;3875;46.562;4.898;2022-08-06T00:42:12;4.37;;;2.87;;
7665;SDS011;3875;46.562;4.898;2022-08-06T00:44:37;3.70;;;2.70;;
7665;SDS011;3875;46.562;4.898;2022-08-06T00:47:03;2.80;;;2.60;;
7665;SDS011;3875;46.562;4.898;2022-08-06T00:49:29;4.97;;;3.03;;
7665;SDS011;3875;46.562;4.898;2022-08-06T00:51:56;4.47;;;2.47;;
7665;SDS011;3875;46.562;4.898;2022-08-06T00:54:21;4.57;;;2.97;;
7665;SDS011;3875;46.562;4.898;2022-08-06T00:56:47;3.50;;;2.60;;
7665;SDS011;3875;46.562;4.898;2022-08-06T00:59:13;2.97;;;2.47;;
7665;SDS011;3875;46.562;4.898;2022-08-06T01:01:39;2.73;;;2.50;;
7665;SDS011;3875;46.562;4.898;2022-08-06T01:04:05;2.57;;;2.37;;
7665;SDS011;3875;46.562;4.898;2022-08-06T01:06:31;3.33;;;2.47;;
7665;SDS011;3875;46.562;4.898;2022-08-06T01:08:57;5.27;;;2.73;;
7665;SDS011;3875;46.562;4.898;2022-08-06T01:11:23;3.37;;;2.37;;
7665;SDS011;3875;46.562;4.898;2022-08-06T01:13:48;3.40;;;2.63;;
7665;SDS011;3875;46.562;4.898;2022-08-06T01:24:50;4.80;;;2.50;;
7665;SDS011;3875;46.562;4.898;2022-08-06T01:30:05;2.50;;;2.30;;
7665;SDS011;3875;46.562;4.898;2022-08-06T01:32:39;5.70;;;2.53;;
7665;SDS011;3875;46.562;4.898;2022-08-06T01:35:12;4.57;;;2.53;;
7665;SDS011;3875;46.562;4.898;2022-08-06T01:37:58;3.03;;;2.23;;
7665;SDS011;3875;46.562;4.898;2022-08-06T01:40:32;3.67;;;2.20;;
7665;SDS011;3875;46.562;4.898;2022-08-06T01:43:00;3.23;;;2.57;;
7665;SDS011;3875;46.562;4.898;2022-08-06T01:45:28;2.17;;;2.07;;
7665;SDS011;3875;46.562;4.898;2022-08-06T01:47:58;3.97;;;2.30;;
7665;SDS011;3875;46.562;4.898;2022-08-06T01:50:27;4.23;;;2.63;;
7665;SDS011;3875;46.562;4.898;2022-08-06T01:53:03;2.90;;;2.60;;
7665;SDS011;3875;46.562;4.898;2022-08-06T01:55:33;5.30;;;2.40;;
7665;SDS011;3875;46.562;4.898;2022-08-06T01:58:03;2.40;;;2.20;;
7665;SDS011;3875;46.562;4.898;2022-08-06T02:00:30;3.43;;;2.47;;
7665;SDS011;3875;46.562;4.898;2022-08-06T02:02:58;2.37;;;2.17;;
7665;SDS011;3875;46.562;4.898;2022-08-06T02:05:28;3.03;;;2.73;;
7665;SDS011;3875;46.562;4.898;2022-08-06T02:07:55;4.70;;;2.90;;
7665;SDS011;3875;46.562;4.898;2022-08-06T02:10:23;2.70;;;2.47;;
7665;SDS011;3875;46.562;4.898;2022-08-06T02:12:51;2.90;;;2.50;;
7665;SDS011;3875;46.562;4.898;2022-08-06T02:15:24;4.17;;;3.03;;
7665;SDS011;3875;46.562;4.898;2022-08-06T02:17:53;3.00;;;2.70;;
7665;SDS011;3875;46.562;4.898;2022-08-06T02:21:05;5.37;;;2.40;;
7665;SDS011;3875;46.562;4.898;2022-08-06T02:23:16;2.83;;;2.30;;
7665;SDS011;3875;46.562;4.898;2022-08-06T02:25:45;2.83;;;2.53;;
7665;SDS011;3875;46.562;4.898;2022-08-06T02:28:12;3.73;;;2.60;;
7665;SDS011;3875;46.562;4.898;2022-08-06T02:30:43;4.37;;;2.73;;
7665;SDS011;3875;46.562;4.898;2022-08-06T02:33:12;3.70;;;2.50;;
7665;SDS011;3875;46.562;4.898;2022-08-06T02:35:43;3.90;;;2.80;;
7665;SDS011;3875;46.562;4.898;2022-08-06T02:38:17;6.23;;;2.40;;
7665;SDS011;3875;46.562;4.898;2022-08-06T02:40:53;4.13;;;2.57;;
7665;SDS011;3875;46.562;4.898;2022-08-06T02:43:32;6.43;;;2.90;;
7665;SDS011;3875;46.562;4.898;2022-08-06T02:46:11;2.70;;;2.47;;
7665;SDS011;3875;46.562;4.898;2022-08-06T02:48:46;2.57;;;2.37;;
7665;SDS011;3875;46.562;4.898;2022-08-06T02:51:23;3.97;;;2.33;;
7665;SDS011;3875;46.562;4.898;2022-08-06T02:56:28;4.23;;;2.33;;
7665;SDS011;3875;46.562;4.898;2022-08-06T02:58:57;4.67;;;2.63;;
7665;SDS011;3875;46.562;4.898;2022-08-06T03:01:27;2.97;;;2.60;;
7665;SDS011;3875;46.562;4.898;2022-08-06T03:03:57;4.00;;;2.60;;
7665;SDS011;3875;46.562;4.898;2022-08-06T03:06:25;4.37;;;2.87;;
7665;SDS011;3875;46.562;4.898;2022-08-06T03:08:54;6.63;;;2.90;;
7665;SDS011;3875;46.562;4.898;2022-08-06T03:11:22;5.23;;;2.47;;
7665;SDS011;3875;46.562;4.898;2022-08-06T03:13:49;2.80;;;2.60;;
7665;SDS011;3875;46.562;4.898;2022-08-06T03:16:17;3.73;;;2.57;;
7665;SDS011;3875;46.562;4.898;2022-08-06T03:18:44;2.97;;;2.70;;
7665;SDS011;3875;46.562;4.898;2022-08-06T03:21:11;2.83;;;2.57;;
7665;SDS011;3875;46.562;4.898;2022-08-06T03:23:37;3.97;;;2.80;;
7665;SDS011;3875;46.562;4.898;2022-08-06T03:26:05;5.17;;;2.90;;
7665;SDS011;3875;46.562;4.898;2022-08-06T03:28:33;6.73;;;2.80;;
7665;SDS011;3875;46.562;4.898;2022-08-06T03:31:01;3.73;;;2.83;;
7665;SDS011;3875;46.562;4.898;2022-08-06T03:33:28;4.33;;;2.73;;
7665;SDS011;3875;46.562;4.898;2022-08-06T03:35:56;4.10;;;2.43;;
7665;SDS011;3875;46.562;4.898;2022-08-06T03:38:24;3.43;;;2.97;;
7665;SDS011;3875;46.562;4.898;2022-08-06T03:40:51;3.00;;;2.20;;
7665;SDS011;3875;46.562;4.898;2022-08-06T03:43:18;3.40;;;2.77;;
7665;SDS011;3875;46.562;4.898;2022-08-06T03:45:46;3.13;;;2.83;;
7665;SDS011;3875;46.562;4.898;2022-08-06T03:48:23;3.47;;;2.83;;
7665;SDS011;3875;46.562;4.898;2022-08-06T03:50:52;3.47;;;3.07;;
7665;SDS011;3875;46.562;4.898;2022-08-06T03:53:20;3.97;;;3.00;;
7665;SDS011;3875;46.562;4.898;2022-08-06T03:55:50;3.50;;;2.70;;
7665;SDS011;3875;46.562;4.898;2022-08-06T03:58:19;5.90;;;2.97;;
7665;SDS011;3875;46.562;4.898;2022-08-06T04:00:57;5.73;;;3.23;;
7665;SDS011;3875;46.562;4.898;2022-08-06T04:03:26;3.70;;;3.07;;
7665;SDS011;3875;46.562;4.898;2022-08-06T04:05:52;4.83;;;2.97;;
7665;SDS011;3875;46.562;4.898;2022-08-06T04:08:21;5.10;;;3.10;;
7665;SDS011;3875;46.562;4.898;2022-08-06T04:10:48;4.43;;;3.40;;
7665;SDS011;3875;46.562;4.898;2022-08-06T04:13:19;5.37;;;2.97;;
7665;SDS011;3875;46.562;4.898;2022-08-06T04:15:47;2.93;;;2.50;;
7665;SDS011;3875;46.562;4.898;2022-08-06T04:18:15;3.97;;;2.73;;
7665;SDS011;3875;46.562;4.898;2022-08-06T04:20:44;3.93;;;3.43;;
7665;SDS011;3875;46.562;4.898;2022-08-06T04:23:12;3.60;;;3.30;;
7665;SDS011;3875;46.562;4.898;2022-08-06T04:25:39;3.47;;;3.17;;
7665;SDS011;3875;46.562;4.898;2022-08-06T04:28:17;5.33;;;3.33;;
7665;SDS011;3875;46.562;4.898;2022-08-06T04:30:44;3.73;;;3.40;;
7665;SDS011;3875;46.562;4.898;2022-08-06T04:33:12;4.53;;;3.17;;
7665;SDS011;3875;46.562;4.898;2022-08-06T04:35:39;3.63;;;3.33;;
7665;SDS011;3875;46.562;4.898;2022-08-06T04:38:06;4.00;;;3.53;;
7665;SDS011;3875;46.562;4.898;2022-08-06T04:40:33;4.70;;;3.70;;
7665;SDS011;3875;46.562;4.898;2022-08-06T04:43:02;4.37;;;3.63;;
7665;SDS011;3875;46.562;4.898;2022-08-06T04:45:30;9.47;;;5.03;;
7665;SDS011;3875;46.562;4.898;2022-08-06T04:47:56;4.33;;;3.93;;
7665;SDS011;3875;46.562;4.898;2022-08-06T04:50:22;7.07;;;4.13;;
7665;SDS011;3875;46.562;4.898;2022-08-06T04:52:48;6.40;;;4.83;;
7665;SDS011;3875;46.562;4.898;2022-08-06T04:55:14;5.27;;;3.60;;
7665;SDS011;3875;46.562;4.898;2022-08-06T04:57:42;4.43;;;3.80;;
7665;SDS011;3875;46.562;4.898;2022-08-06T05:00:08;4.27;;;3.97;;
7665;SDS011;3875;46.562;4.898;2022-08-06T05:02:34;7.57;;;4.10;;
7665;SDS011;3875;46.562;4.898;2022-08-06T05:05:00;4.00;;;3.70;;
7665;SDS011;3875;46.562;4.898;2022-08-06T05:07:26;4.47;;;3.83;;
7665;SDS011;3875;46.562;4.898;2022-08-06T05:09:56;5.67;;;3.63;;
7665;SDS011;3875;46.562;4.898;2022-08-06T05:12:32;4.23;;;3.83;;
7665;SDS011;3875;46.562;4.898;2022-08-06T05:15:06;5.53;;;3.87;;
7665;SDS011;3875;46.562;4.898;2022-08-06T05:17:40;4.17;;;3.77;;
7665;SDS011;3875;46.562;4.898;2022-08-06T05:20:15;4.83;;;3.67;;
7665;SDS011;3875;46.562;4.898;2022-08-06T05:22:43;3.97;;;3.47;;
7665;SDS011;3875;46.562;4.898;2022-08-06T05:25:11;4.77;;;3.33;;
7665;SDS011;3875;46.562;4.898;2022-08-06T05:27:38;5.23;;;3.90;;
7665;SDS011;3875;46.562;4.898;2022-08-06T05:30:05;3.93;;;3.60;;
7665;SDS011;3875;46.562;4.898;2022-08-06T05:32:39;5.80;;;4.03;;
7665;SDS011;3875;46.562;4.898;2022-08-06T05:35:06;4.73;;;3.83;;
7665;SDS011;3875;46.562;4.898;2022-08-06T05:37:32;4.33;;;3.93;;
7665;SDS011;3875;46.562;4.898;2022-08-06T05:39:58;4.93;;;3.73;;
7665;SDS011;3875;46.562;4.898;2022-08-06T05:42:23;4.03;;;3.70;;
7665;SDS011;3875;46.562;4.898;2022-08-06T05:44:49;4.87;;;3.03;;
7665;SDS011;3875;46.562;4.898;2022-08-06T05:47:15;4.33;;;3.27;;
7665;SDS011;3875;46.562;4.898;2022-08-06T05:49:48;4.53;;;4.13;;
7665;SDS011;3875;46.562;4.898;2022-08-06T05:52:42;7.30;;;4.27;;
7665;SDS011;3875;46.562;4.898;2022-08-06T05:55:19;6.50;;;3.60;;
7665;SDS011;3875;46.562;4.898;2022-08-06T05:57:56;5.67;;;3.47;;
7665;SDS011;3875;46.562;4.898;2022-08-06T06:00:26;4.17;;;3.57;;
7665;SDS011;3875;46.562;4.898;2022-08-06T06:02:57;4.17;;;3.53;;
7665;SDS011;3875;46.562;4.898;2022-08-06T06:05:25;3.40;;;3.10;;
7665;SDS011;3875;46.562;4.898;2022-08-06T06:07:51;3.87;;;3.37;;
7665;SDS011;3875;46.562;4.898;2022-08-06T06:10:19;3.40;;;3.10;;
7665;SDS011;3875;46.562;4.898;2022-08-06T06:12:47;3.63;;;3.27;;
7665;SDS011;3875;46.562;4.898;2022-08-06T06:15:14;4.33;;;3.27;;
7665;SDS011;3875;46.562;4.898;2022-08-06T06:17:54;3.87;;;3.37;;
7665;SDS011;3875;46.562;4.898;2022-08-06T06:23:42;3.80;;;3.37;;
7665;SDS011;3875;46.562;4.898;2022-08-06T06:34:40;3.43;;;2.87;;
7665;SDS011;3875;46.562;4.898;2022-08-06T06:40:16;5.90;;;3.20;;
7665;SDS011;3875;46.562;4.898;2022-08-06T06:45:42;3.13;;;2.80;;
7665;SDS011;3875;46.562;4.898;2022-08-06T06:50:44;4.43;;;3.27;;
7665;SDS011;3875;46.562;4.898;2022-08-06T06:53:12;5.67;;;3.47;;
7665;SDS011;3875;46.562;4.898;2022-08-06T06:55:47;4.40;;;2.73;;
7665;SDS011;3875;46.562;4.898;2022-08-06T06:58:19;3.30;;;3.00;;
7665;SDS011;3875;46.562;4.898;2022-08-06T07:00:46;3.17;;;2.97;;
7665;SDS011;3875;46.562;4.898;2022-08-06T07:03:12;3.97;;;3.33;;
7665;SDS011;3875;46.562;4.898;2022-08-06T07:05:40;2.90;;;2.67;;
7665;SDS011;3875;46.562;4.898;2022-08-06T07:08:08;3.43;;;2.93;;
7665;SDS011;3875;46.562;4.898;2022-08-06T07:10:36;3.93;;;3.00;;
7665;SDS011;3875;46.562;4.898;2022-08-06T07:13:05;4.97;;;2.80;;
7665;SDS011;3875;46.562;4.898;2022-08-06T07:15:32;3.83;;;3.33;;
7665;SDS011;3875;46.562;4.898;2022-08-06T07:17:59;5.73;;;2.97;;
7665;SDS011;3875;46.562;4.898;2022-08-06T07:20:28;3.73;;;3.17;;
7665;SDS011;3875;46.562;4.898;2022-08-06T07:23:03;5.30;;;3.30;;
7665;SDS011;3875;46.562;4.898;2022-08-06T07:25:39;3.07;;;2.80;;
7665;SDS011;3875;46.562;4.898;2022-08-06T07:28:08;3.20;;;2.97;;
7665;SDS011;3875;46.562;4.898;2022-08-06T07:30:36;6.67;;;3.20;;
7665;SDS011;3875;46.562;4.898;2022-08-06T07:33:02;3.17;;;2.97;;
7665;SDS011;3875;46.562;4.898;2022-08-06T07:35:29;4.10;;;3.47;;
7665;SDS011;3875;46.562;4.898;2022-08-06T07:37:57;4.80;;;3.23;;
7665;SDS011;3875;46.562;4.898;2022-08-06T07:40:30;2.77;;;2.53;;
7665;SDS011;3875;46.562;4.898;2022-08-06T07:43:13;3.40;;;3.10;;
7665;SDS011;3875;46.562;4.898;2022-08-06T07:45:44;3.20;;;2.90;;
7665;SDS011;3875;46.562;4.898;2022-08-06T07:48:12;3.63;;;3.17;;
7665;SDS011;3875;46.562;4.898;2022-08-06T07:50:40;3.63;;;3.00;;
7665;SDS011;3875;46.562;4.898;2022-08-06T07:53:09;3.27;;;2.93;;
7665;SDS011;3875;46.562;4.898;2022-08-06T07:55:36;3.77;;;3.20;;
7665;SDS011;3875;46.562;4.898;2022-08-06T07:58:03;4.40;;;3.10;;
7665;SDS011;3875;46.562;4.898;2022-08-06T08:00:30;3.77;;;3.20;;
7665;SDS011;3875;46.562;4.898;2022-08-06T08:02:56;3.90;;;2.73;;
7665;SDS011;3875;46.562;4.898;2022-08-06T08:05:41;3.10;;;2.33;;
7665;SDS011;3875;46.562;4.898;2022-08-06T08:08:28;2.40;;;2.10;;
7665;SDS011;3875;46.562;4.898;2022-08-06T08:10:54;2.80;;;2.60;;
7665;SDS011;3875;46.562;4.898;2022-08-06T08:13:24;6.07;;;3.00;;
7665;SDS011;3875;46.562;4.898;2022-08-06T08:15:50;2.83;;;2.63;;
7665;SDS011;3875;46.562;4.898;2022-08-06T08:18:16;2.93;;;2.40;;
7665;SDS011;3875;46.562;4.898;2022-08-06T08:20:42;3.70;;;3.30;;
7665;SDS011;3875;46.562;4.898;2022-08-06T08:23:09;3.53;;;3.10;;
7665;SDS011;3875;46.562;4.898;2022-08-06T08:25:38;3.00;;;2.80;;
7665;SDS011;3875;46.562;4.898;2022-08-06T08:28:07;4.77;;;3.63;;
7665;SDS011;3875;46.562;4.898;2022-08-06T08:30:36;3.67;;;3.10;;
7665;SDS011;3875;46.562;4.898;2022-08-06T08:33:04;4.57;;;2.83;;
7665;SDS011;3875;46.562;4.898;2022-08-06T08:35:30;3.83;;;2.70;;
7665;SDS011;3875;46.562;4.898;2022-08-06T08:37:56;4.20;;;2.80;;
7665;SDS011;3875;46.562;4.898;2022-08-06T08:40:21;3.53;;;2.10;;
7665;SDS011;3875;46.562;4.898;2022-08-06T08:42:50;3.10;;;2.90;;
7665;SDS011;3875;46.562;4.898;2022-08-06T08:45:18;3.17;;;2.87;;
7665;SDS011;3875;46.562;4.898;2022-08-06T08:47:55;3.63;;;2.97;;
7665;SDS011;3875;46.562;4.898;2022-08-06T08:50:25;2.57;;;2.37;;
7665;SDS011;3875;46.562;4.898;2022-08-06T08:52:55;3.07;;;2.20;;
7665;SDS011;3875;46.562;4.898;2022-08-06T08:55:28;4.33;;;3.00;;
7665;SDS011;3875;46.562;4.898;2022-08-06T08:57:54;4.13;;;3.00;;
7665;SDS011;3875;46.562;4.898;2022-08-06T09:00:21;3.63;;;2.83;;
7665;SDS011;3875;46.562;4.898;2022-08-06T09:02:47;3.47;;;3.10;;
7665;SDS011;3875;46.562;4.898;2022-08-06T09:05:14;3.47;;;3.03;;
7665;SDS011;3875;46.562;4.898;2022-08-06T09:07:40;4.07;;;2.97;;
7665;SDS011;3875;46.562;4.898;2022-08-06T09:10:07;2.73;;;2.53;;
7665;SDS011;3875;46.562;4.898;2022-08-06T09:12:34;3.87;;;2.20;;
7665;SDS011;3875;46.562;4.898;2022-08-06T09:15:01;3.23;;;2.93;;
7665;SDS011;3875;46.562;4.898;2022-08-06T09:17:28;3.10;;;2.80;;
7665;SDS011;3875;46.562;4.898;2022-08-06T09:19:54;3.77;;;2.90;;
7665;SDS011;3875;46.562;4.898;2022-08-06T09:22:20;3.60;;;2.83;;
7665;SDS011;3875;46.562;4.898;2022-08-06T09:24:46;2.90;;;2.70;;
7665;SDS011;3875;46.562;4.898;2022-08-06T09:27:12;25.60;;;5.77;;
7665;SDS011;3875;46.562;4.898;2022-08-06T09:32:34;21.63;;;5.20;;
7665;SDS011;3875;46.562;4.898;2022-08-06T09:38:01;3.87;;;2.97;;
7665;SDS011;3875;46.562;4.898;2022-08-06T09:40:30;3.20;;;2.90;;
7665;SDS011;3875;46.562;4.898;2022-08-06T09:42:57;3.73;;;2.60;;
7665;SDS011;3875;46.562;4.898;2022-08-06T09:45:23;3.27;;;2.97;;
7665;SDS011;3875;46.562;4.898;2022-08-06T09:48:07;5.67;;;2.80;;
7665;SDS011;3875;46.562;4.898;2022-08-06T09:50:42;3.03;;;2.57;;
7665;SDS011;3875;46.562;4.898;2022-08-06T09:53:10;3.33;;;2.30;;
7665;SDS011;3875;46.562;4.898;2022-08-06T09:55:37;4.37;;;2.77;;
7665;SDS011;3875;46.562;4.898;2022-08-06T09:58:03;2.80;;;2.60;;
7665;SDS011;3875;46.562;4.898;2022-08-06T10:00:30;3.80;;;2.93;;
7665;SDS011;3875;46.562;4.898;2022-08-06T10:03:04;4.00;;;3.30;;
7665;SDS011;3875;46.562;4.898;2022-08-06T10:05:31;2.50;;;2.30;;
7665;SDS011;3875;46.562;4.898;2022-08-06T10:08:05;3.20;;;2.90;;
7665;SDS011;3875;46.562;4.898;2022-08-06T10:10:39;3.83;;;3.10;;
7665;SDS011;3875;46.562;4.898;2022-08-06T10:13:19;4.27;;;2.20;;
7665;SDS011;3875;46.562;4.898;2022-08-06T10:15:48;3.10;;;2.80;;
7665;SDS011;3875;46.562;4.898;2022-08-06T10:21:05;3.33;;;2.70;;
7665;SDS011;3875;46.562;4.898;2022-08-06T10:23:32;3.30;;;2.50;;
7665;SDS011;3875;46.562;4.898;2022-08-06T10:26:00;3.07;;;2.77;;
7665;SDS011;3875;46.562;4.898;2022-08-06T10:28:28;3.30;;;2.47;;
7665;SDS011;3875;46.562;4.898;2022-08-06T10:30:56;3.07;;;2.77;;
7665;SDS011;3875;46.562;4.898;2022-08-06T10:33:23;4.87;;;2.80;;
7665;SDS011;3875;46.562;4.898;2022-08-06T10:36:04;3.80;;;2.67;;
7665;SDS011;3875;46.562;4.898;2022-08-06T10:38:34;2.50;;;2.30;;
7665;SDS011;3875;46.562;4.898;2022-08-06T10:41:10;3.40;;;3.07;;
7665;SDS011;3875;46.562;4.898;2022-08-06T10:43:38;2.97;;;2.70;;
7665;SDS011;3875;46.562;4.898;2022-08-06T10:46:08;3.03;;;2.72;;
7665;SDS011;3875;46.562;4.898;2022-08-06T10:48:39;3.53;;;2.40;;
7665;SDS011;3875;46.562;4.898;2022-08-06T10:51:07;7.60;;;2.27;;
7665;SDS011;3875;46.562;4.898;2022-08-06T10:53:37;4.00;;;2.80;;
7665;SDS011;3875;46.562;4.898;2022-08-06T10:56:05;2.97;;;2.65;;
7665;SDS011;3875;46.562;4.898;2022-08-06T10:58:33;3.20;;;2.77;;
7665;SDS011;3875;46.562;4.898;2022-08-06T11:01:02;2.28;;;2.15;;
7665;SDS011;3875;46.562;4.898;2022-08-06T11:11:58;6.90;;;2.70;;
7665;SDS011;3875;46.562;4.898;2022-08-06T11:14:51;2.57;;;2.37;;
7665;SDS011;3875;46.562;4.898;2022-08-06T11:17:17;4.93;;;2.60;;
7665;SDS011;3875;46.562;4.898;2022-08-06T11:19:44;3.10;;;2.80;;
7665;SDS011;3875;46.562;4.898;2022-08-06T11:25:07;1.90;;;1.80;;
7665;SDS011;3875;46.562;4.898;2022-08-06T11:27:50;2.80;;;2.60;;
7665;SDS011;3875;46.562;4.898;2022-08-06T11:30:20;2.80;;;2.60;;
7665;SDS011;3875;46.562;4.898;2022-08-06T11:32:50;2.70;;;2.50;;
7665;SDS011;3875;46.562;4.898;2022-08-06T11:38:02;2.80;;;2.42;;
7665;SDS011;3875;46.562;4.898;2022-08-06T11:46:17;2.85;;;2.63;;
7665;SDS011;3875;46.562;4.898;2022-08-06T11:52:00;2.33;;;2.13;;
7665;SDS011;3875;46.562;4.898;2022-08-06T11:59:28;2.40;;;2.20;;
7665;SDS011;3875;46.562;4.898;2022-08-06T12:02:13;2.95;;;2.40;;
7665;SDS011;3875;46.562;4.898;2022-08-06T12:04:59;2.60;;;2.40;;
7665;SDS011;3875;46.562;4.898;2022-08-06T12:07:28;2.60;;;2.40;;
7665;SDS011;3875;46.562;4.898;2022-08-06T12:20:32;2.92;;;2.58;;
7665;SDS011;3875;46.562;4.898;2022-08-06T12:23:00;2.25;;;2.15;;
7665;SDS011;3875;46.562;4.898;2022-08-06T12:25:30;2.55;;;2.35;;
7665;SDS011;3875;46.562;4.898;2022-08-06T12:27:58;2.67;;;2.47;;
7665;SDS011;3875;46.562;4.898;2022-08-06T12:30:24;2.97;;;2.60;;
7665;SDS011;3875;46.562;4.898;2022-08-06T12:32:58;4.13;;;2.50;;
7665;SDS011;3875;46.562;4.898;2022-08-06T12:35:27;2.45;;;2.15;;
7665;SDS011;3875;46.562;4.898;2022-08-06T12:37:53;3.50;;;2.55;;
7665;SDS011;3875;46.562;4.898;2022-08-06T12:40:20;2.95;;;2.67;;
7665;SDS011;3875;46.562;4.898;2022-08-06T12:43:14;2.42;;;2.25;;
7665;SDS011;3875;46.562;4.898;2022-08-06T12:45:39;2.60;;;2.13;;
7665;SDS011;3875;46.562;4.898;2022-08-06T13:20:57;2.70;;;2.50;;
7665;SDS011;3875;46.562;4.898;2022-08-06T13:23:31;2.17;;;2.08;;
7665;SDS011;3875;46.562;4.898;2022-08-06T13:26:23;3.50;;;2.42;;
7665;SDS011;3875;46.562;4.898;2022-08-06T13:31:38;2.63;;;2.40;;
7665;SDS011;3875;46.562;4.898;2022-08-06T13:34:08;3.83;;;2.38;;
7665;SDS011;3875;46.562;4.898;2022-08-06T13:36:40;2.65;;;2.45;;
7665;SDS011;3875;46.562;4.898;2022-08-06T13:39:17;2.45;;;2.25;;
7665;SDS011;3875;46.562;4.898;2022-08-06T13:44:45;3.03;;;2.30;;
7665;SDS011;3875;46.562;4.898;2022-08-06T13:47:13;2.45;;;1.92;;
7665;SDS011;3875;46.562;4.898;2022-08-06T13:49:50;3.13;;;2.45;;
7665;SDS011;3875;46.562;4.898;2022-08-06T13:52:15;3.80;;;2.35;;
7665;SDS011;3875;46.562;4.898;2022-08-06T13:54:41;2.75;;;2.55;;
7665;SDS011;3875;46.562;4.898;2022-08-06T13:57:07;2.50;;;2.30;;
7665;SDS011;3875;46.562;4.898;2022-08-06T13:59:33;4.22;;;2.50;;
7665;SDS011;3875;46.562;4.898;2022-08-06T14:02:02;4.35;;;2.72;;
7665;SDS011;3875;46.562;4.898;2022-08-06T14:04:28;2.95;;;2.50;;
7665;SDS011;3875;46.562;4.898;2022-08-06T14:06:55;3.17;;;2.63;;
7665;SDS011;3875;46.562;4.898;2022-08-06T14:09:23;9.50;;;2.38;;
7665;SDS011;3875;46.562;4.898;2022-08-06T14:11:56;2.58;;;2.38;;
7665;SDS011;3875;46.562;4.898;2022-08-06T14:14:24;3.90;;;2.70;;
7665;SDS011;3875;46.562;4.898;2022-08-06T14:16:51;2.40;;;2.20;;
7665;SDS011;3875;46.562;4.898;2022-08-06T14:19:18;2.35;;;1.95;;
7665;SDS011;3875;46.562;4.898;2022-08-06T14:21:44;2.78;;;2.58;;
7665;SDS011;3875;46.562;4.898;2022-08-06T14:24:09;2.58;;;2.38;;
7665;SDS011;3875;46.562;4.898;2022-08-06T14:26:35;2.67;;;2.33;;
7665;SDS011;3875;46.562;4.898;2022-08-06T14:29:02;2.58;;;2.40;;
7665;SDS011;3875;46.562;4.898;2022-08-06T14:31:30;3.05;;;2.50;;
7665;SDS011;3875;46.562;4.898;2022-08-06T14:33:57;2.13;;;1.92;;
7665;SDS011;3875;46.562;4.898;2022-08-06T14:36:23;2.25;;;2.10;;
7665;SDS011;3875;46.562;4.898;2022-08-06T14:38:49;2.40;;;2.20;;
7665;SDS011;3875;46.562;4.898;2022-08-06T14:41:14;2.60;;;2.40;;
7665;SDS011;3875;46.562;4.898;2022-08-06T14:43:59;3.22;;;2.35;;
7665;SDS011;3875;46.562;4.898;2022-08-06T14:46:43;2.65;;;2.45;;
7665;SDS011;3875;46.562;4.898;2022-08-06T14:49:09;2.58;;;2.38;;
7665;SDS011;3875;46.562;4.898;2022-08-06T14:51:34;2.50;;;2.30;;
7665;SDS011;3875;46.562;4.898;2022-08-06T14:54:00;2.10;;;2.00;;
7665;SDS011;3875;46.562;4.898;2022-08-06T14:56:26;3.25;;;2.60;;
7665;SDS011;3875;46.562;4.898;2022-08-06T14:58:52;2.55;;;2.30;;
7665;SDS011;3875;46.562;4.898;2022-08-06T15:01:17;2.47;;;2.28;;
7665;SDS011;3875;46.562;4.898;2022-08-06T15:03:43;2.35;;;2.15;;
7665;SDS011;3875;46.562;4.898;2022-08-06T15:06:09;3.30;;;2.08;;
7665;SDS011;3875;46.562;4.898;2022-08-06T15:08:35;2.17;;;1.98;;
7665;SDS011;3875;46.562;4.898;2022-08-06T15:11:02;4.03;;;2.20;;
7665;SDS011;3875;46.562;4.898;2022-08-06T15:13:28;2.45;;;2.25;;
7665;SDS011;3875;46.562;4.898;2022-08-06T15:15:54;2.33;;;2.13;;
7665;SDS011;3875;46.562;4.898;2022-08-06T15:18:19;2.33;;;2.10;;
7665;SDS011;3875;46.562;4.898;2022-08-06T15:20:46;2.15;;;2.05;;
7665;SDS011;3875;46.562;4.898;2022-08-06T15:23:12;2.80;;;2.35;;
7665;SDS011;3875;46.562;4.898;2022-08-06T15:25:37;3.65;;;1.92;;
7665;SDS011;3875;46.562;4.898;2022-08-06T15:28:04;5.57;;;2.05;;
7665;SDS011;3875;46.562;4.898;2022-08-06T15:30:30;2.30;;;2.10;;
7665;SDS011;3875;46.562;4.898;2022-08-06T15:32:55;2.45;;;2.25;;
7665;SDS011;3875;46.562;4.898;2022-08-06T15:35:24;2.55;;;2.05;;
7665;SDS011;3875;46.562;4.898;2022-08-06T15:37:50;2.30;;;2.00;;
7665;SDS011;3875;46.562;4.898;2022-08-06T15:40:17;4.03;;;2.03;;
7665;SDS011;3875;46.562;4.898;2022-08-06T15:42:43;2.40;;;2.20;;
7665;SDS011;3875;46.562;4.898;2022-08-06T15:45:09;4.63;;;2.42;;
7665;SDS011;3875;46.562;4.898;2022-08-06T15:47:38;2.20;;;2.00;;
7665;SDS011;3875;46.562;4.898;2022-08-06T15:50:05;2.30;;;2.10;;
7665;SDS011;3875;46.562;4.898;2022-08-06T15:52:31;3.35;;;2.45;;
7665;SDS011;3875;46.562;4.898;2022-08-06T15:54:57;2.55;;;2.15;;
7665;SDS011;3875;46.562;4.898;2022-08-06T15:57:24;1.95;;;1.80;;
7665;SDS011;3875;46.562;4.898;2022-08-06T15:59:49;2.40;;;2.20;;
7665;SDS011;3875;46.562;4.898;2022-08-06T16:02:15;1.88;;;1.75;;
7665;SDS011;3875;46.562;4.898;2022-08-06T16:04:41;2.30;;;2.10;;
7665;SDS011;3875;46.562;4.898;2022-08-06T16:07:06;3.70;;;2.20;;
7665;SDS011;3875;46.562;4.898;2022-08-06T16:09:36;2.17;;;1.98;;
7665;SDS011;3875;46.562;4.898;2022-08-06T16:12:02;2.78;;;2.08;;
7665;SDS011;3875;46.562;4.898;2022-08-06T16:14:30;2.47;;;2.20;;
7665;SDS011;3875;46.562;4.898;2022-08-06T16:16:56;3.35;;;1.95;;
7665;SDS011;3875;46.562;4.898;2022-08-06T16:19:22;2.33;;;2.13;;
7665;SDS011;3875;46.562;4.898;2022-08-06T16:21:48;2.60;;;2.15;;
7665;SDS011;3875;46.562;4.898;2022-08-06T16:24:14;2.17;;;2.08;;
7665;SDS011;3875;46.562;4.898;2022-08-06T16:26:40;3.20;;;1.90;;
7665;SDS011;3875;46.562;4.898;2022-08-06T16:29:06;4.90;;;2.20;;
7665;SDS011;3875;46.562;4.898;2022-08-06T16:31:32;2.83;;;2.20;;
7665;SDS011;3875;46.562;4.898;2022-08-06T16:33:58;4.80;;;2.20;;
7665;SDS011;3875;46.562;4.898;2022-08-06T16:36:24;2.78;;;2.28;;
7665;SDS011;3875;46.562;4.898;2022-08-06T16:38:49;2.20;;;2.03;;
7665;SDS011;3875;46.562;4.898;2022-08-06T16:41:15;2.03;;;1.88;;
7665;SDS011;3875;46.562;4.898;2022-08-06T16:43:41;2.10;;;1.90;;
7665;SDS011;3875;46.562;4.898;2022-08-06T16:46:06;3.38;;;2.67;;
7665;SDS011;3875;46.562;4.898;2022-08-06T16:48:32;2.55;;;2.35;;
7665;SDS011;3875;46.562;4.898;2022-08-06T16:50:58;2.47;;;2.28;;
7665;SDS011;3875;46.562;4.898;2022-08-06T16:53:23;2.38;;;2.17;;
7665;SDS011;3875;46.562;4.898;2022-08-06T16:55:49;2.55;;;2.20;;
7665;SDS011;3875;46.562;4.898;2022-08-06T16:58:16;2.33;;;2.13;;
7665;SDS011;3875;46.562;4.898;2022-08-06T17:00:42;3.30;;;2.40;;
7665;SDS011;3875;46.562;4.898;2022-08-06T17:03:07;4.55;;;2.30;;
7665;SDS011;3875;46.562;4.898;2022-08-06T17:05:33;4.75;;;2.05;;
7665;SDS011;3875;46.562;4.898;2022-08-06T17:08:00;1.90;;;1.80;;
7665;SDS011;3875;46.562;4.898;2022-08-06T17:10:26;3.70;;;2.00;;
7665;SDS011;3875;46.562;4.898;2022-08-06T17:12:52;2.50;;;2.30;;
7665;SDS011;3875;46.562;4.898;2022-08-06T17:15:18;2.60;;;2.33;;
7665;SDS011;3875;46.562;4.898;2022-08-06T17:17:45;1.92;;;1.83;;
7665;SDS011;3875;46.562;4.898;2022-08-06T17:20:12;2.15;;;1.95;;
7665;SDS011;3875;46.562;4.898;2022-08-06T17:22:39;2.75;;;1.95;;
7665;SDS011;3875;46.562;4.898;2022-08-06T17:25:06;2.35;;;2.15;;